createdAt,value
2022-10-18T00:00:39.622Z,85.60
2022-10-18T00:03:06.837Z,85.60
2022-10-18T00:05:34.145Z,85.60
2022-10-18T00:08:01.133Z,85.50
2022-10-18T00:10:27.918Z,85.40
2022-10-18T00:12:54.738Z,85.30
2022-10-18T00:15:21.572Z,85.30
2022-10-18T00:17:48.362Z,85.40
2022-10-18T00:20:15.133Z,85.50
2022-10-18T00:22:42.374Z,85.40
2022-10-18T00:25:09.698Z,85.60
2022-10-18T00:27:37.051Z,85.60
2022-10-18T00:30:05.119Z,85.70
2022-10-18T00:32:35.522Z,85.70
2022-10-18T00:35:02.254Z,85.80
2022-10-18T00:37:29.186Z,85.70
2022-10-18T00:39:55.929Z,85.50
2022-10-18T00:42:25.166Z,85.30
2022-10-18T00:44:51.901Z,85.20
2022-10-18T00:47:19.572Z,85.10
2022-10-18T00:49:54.652Z,84.80
2022-10-18T00:52:25.675Z,84.40
2022-10-18T00:54:52.979Z,83.90
2022-10-18T00:57:19.920Z,83.70
2022-10-18T00:59:47.510Z,83.60
2022-10-18T01:02:18.125Z,83.50
2022-10-18T01:04:46.368Z,83.50
2022-10-18T01:07:34.502Z,83.50
2022-10-18T01:10:19.599Z,83.50
2022-10-18T01:13:09.638Z,83.50
2022-10-18T01:16:00.530Z,83.50
2022-10-18T01:18:36.249Z,83.40
2022-10-18T01:21:30.579Z,83.40
2022-10-18T01:24:23.658Z,83.50
2022-10-18T01:27:16.026Z,83.30
2022-10-18T01:29:57.818Z,83.30
2022-10-18T01:32:37.649Z,83.20
2022-10-18T01:35:08.833Z,83.50
2022-10-18T01:37:36.434Z,83.80
2022-10-18T01:40:06.762Z,83.60
2022-10-18T01:42:34.220Z,83.50
2022-10-18T01:45:02.934Z,83.30
2022-10-18T01:47:31.145Z,83.30
2022-10-18T01:50:00.169Z,83.40
2022-10-18T01:52:27.029Z,83.50
2022-10-18T01:54:54.799Z,83.60
2022-10-18T01:57:33.040Z,83.70
2022-10-18T02:00:24.125Z,83.60
2022-10-18T02:02:50.875Z,83.70
2022-10-18T02:05:40.261Z,83.70
2022-10-18T02:08:22.780Z,83.80
2022-10-18T02:11:14.174Z,83.90
2022-10-18T02:13:49.024Z,84.10
2022-10-18T02:16:39.159Z,84.30
2022-10-18T02:19:12.454Z,84.40
2022-10-18T02:21:43.719Z,84.40
2022-10-18T02:24:14.047Z,84.20
2022-10-18T02:26:40.955Z,84.10
2022-10-18T02:29:08.359Z,84.30
2022-10-18T02:31:45.635Z,84.50
2022-10-18T02:34:29.855Z,84.70
2022-10-18T02:37:01.465Z,84.50
2022-10-18T02:39:36.479Z,84.40
2022-10-18T02:42:08.076Z,84.30
2022-10-18T02:44:35.068Z,84.10
2022-10-18T02:47:02.416Z,83.80
2022-10-18T02:49:29.239Z,83.60
2022-10-18T02:51:56.662Z,83.40
2022-10-18T02:54:23.856Z,83.20
2022-10-18T02:56:50.865Z,83.10
2022-10-18T02:59:17.739Z,82.90
2022-10-18T03:01:44.568Z,82.80
2022-10-18T03:04:11.581Z,82.70
2022-10-18T03:06:38.394Z,82.60
2022-10-18T03:09:06.128Z,82.50
2022-10-18T03:11:33.035Z,82.40
2022-10-18T03:13:59.806Z,82.30
2022-10-18T03:16:26.582Z,82.20
2022-10-18T03:18:53.330Z,82.20
2022-10-18T03:21:20.209Z,82.10
2022-10-18T03:23:47.011Z,82.00
2022-10-18T03:26:13.775Z,81.90
2022-10-18T03:28:40.576Z,81.90
2022-10-18T03:31:07.437Z,81.90
2022-10-18T03:33:34.282Z,81.90
2022-10-18T03:36:01.195Z,81.80
2022-10-18T03:39:18.632Z,81.70
2022-10-18T03:41:45.424Z,81.60
2022-10-18T03:44:12.169Z,81.40
2022-10-18T03:46:38.907Z,81.30
2022-10-18T03:49:05.690Z,81.30
2022-10-18T03:51:32.534Z,81.40
2022-10-18T03:54:00.616Z,81.40
2022-10-18T03:56:27.464Z,81.50
2022-10-18T03:58:54.267Z,81.60
2022-10-18T04:01:21.118Z,81.70
2022-10-18T04:03:47.972Z,81.70
2022-10-18T04:06:14.766Z,81.70
2022-10-18T04:08:41.531Z,81.80
2022-10-18T04:11:08.590Z,81.80
2022-10-18T04:13:35.910Z,81.90
2022-10-18T04:16:02.861Z,82.00
2022-10-18T04:18:29.617Z,82.00
2022-10-18T04:20:56.470Z,82.10
2022-10-18T04:23:23.829Z,82.30
2022-10-18T04:25:50.799Z,82.40
2022-10-18T04:28:18.620Z,82.40
2022-10-18T04:30:50.381Z,82.50
2022-10-18T04:33:17.743Z,82.90
2022-10-18T04:35:44.799Z,83.00
2022-10-18T04:38:11.633Z,83.20
2022-10-18T04:40:38.409Z,83.30
2022-10-18T04:43:05.173Z,83.40
2022-10-18T04:45:31.955Z,83.60
2022-10-18T04:47:58.727Z,83.70
2022-10-18T04:50:25.543Z,83.80
2022-10-18T04:52:53.429Z,83.90
2022-10-18T04:55:20.611Z,84.00
2022-10-18T04:57:47.431Z,84.00
2022-10-18T05:00:16.887Z,83.80
2022-10-18T05:02:43.664Z,83.80
2022-10-18T05:05:13.298Z,83.70
2022-10-18T05:07:41.083Z,83.60
2022-10-18T05:10:08.354Z,83.60
2022-10-18T05:12:35.317Z,83.60
2022-10-18T05:15:02.210Z,83.60
2022-10-18T05:17:29.036Z,83.60
2022-10-18T05:19:55.812Z,83.60
2022-10-18T05:22:22.547Z,83.60
2022-10-18T05:24:49.311Z,83.60
2022-10-18T05:27:16.202Z,83.60
2022-10-18T05:29:42.990Z,83.60
2022-10-18T05:32:09.931Z,83.70
2022-10-18T05:34:36.792Z,83.80
2022-10-18T05:37:03.574Z,83.90
2022-10-18T05:39:30.347Z,83.90
2022-10-18T05:41:58.119Z,83.90
2022-10-18T05:44:24.877Z,83.90
2022-10-18T05:46:51.676Z,83.90
2022-10-18T05:49:18.445Z,83.90
2022-10-18T05:51:45.249Z,84.00
2022-10-18T05:54:12.734Z,84.30
2022-10-18T05:56:40.216Z,84.40
2022-10-18T05:59:12.025Z,84.70
2022-10-18T06:01:42.891Z,84.90
2022-10-18T06:04:12.995Z,85.10
2022-10-18T06:06:39.893Z,85.10
2022-10-18T06:09:07.970Z,85.20
2022-10-18T06:11:35.848Z,85.20
2022-10-18T06:14:03.090Z,85.30
2022-10-18T06:16:32.457Z,85.20
2022-10-18T06:19:00.107Z,85.30
2022-10-18T06:21:27.671Z,85.30
2022-10-18T06:23:58.826Z,85.20
2022-10-18T06:26:27.130Z,85.10
2022-10-18T06:28:54.002Z,85.00
2022-10-18T06:31:21.324Z,85.00
2022-10-18T06:33:48.426Z,85.00
2022-10-18T06:36:25.010Z,84.90
2022-10-18T06:38:52.202Z,84.70
2022-10-18T06:41:19.594Z,84.40
2022-10-18T06:43:55.051Z,84.30
2022-10-18T06:46:21.837Z,84.10
2022-10-18T06:48:48.645Z,84.00
2022-10-18T06:51:15.487Z,84.00
2022-10-18T06:53:44.599Z,84.00
2022-10-18T06:56:25.769Z,84.10
2022-10-18T06:58:52.609Z,84.10
2022-10-18T07:01:19.782Z,84.10
2022-10-18T07:03:48.707Z,84.10
2022-10-18T07:06:17.437Z,84.10
2022-10-18T07:08:45.031Z,84.10
2022-10-18T07:11:24.237Z,84.10
2022-10-18T07:13:52.122Z,84.20
2022-10-18T07:16:19.326Z,84.10
2022-10-18T07:18:49.638Z,84.10
2022-10-18T07:21:28.235Z,84.20
2022-10-18T07:23:55.941Z,84.20
2022-10-18T07:26:29.128Z,84.20
2022-10-18T07:29:11.459Z,84.40
2022-10-18T07:31:41.224Z,84.40
2022-10-18T07:34:10.873Z,84.60
2022-10-18T07:36:37.888Z,84.70
2022-10-18T07:39:05.008Z,84.80
2022-10-18T07:41:33.816Z,84.90
2022-10-18T07:44:01.329Z,85.10
2022-10-18T07:46:30.730Z,85.20
2022-10-18T07:48:59.579Z,85.50
2022-10-18T07:51:27.940Z,85.50
2022-10-18T07:54:00.913Z,85.70
2022-10-18T07:56:36.248Z,85.70
2022-10-18T07:59:03.249Z,85.80
2022-10-18T08:01:39.136Z,85.90
2022-10-18T08:04:07.955Z,86.10
2022-10-18T08:06:46.013Z,86.20
2022-10-18T08:09:13.106Z,86.40
2022-10-18T08:12:15.883Z,86.90
2022-10-18T08:14:53.670Z,87.20
2022-10-18T08:17:23.652Z,87.30
2022-10-18T08:20:11.307Z,87.90
2022-10-18T08:22:39.356Z,88.40
2022-10-18T08:25:06.654Z,89.00
2022-10-18T08:27:49.100Z,89.20
2022-10-18T08:30:16.133Z,89.40
2022-10-18T08:32:45.207Z,89.70
2022-10-18T08:35:11.985Z,90.00
2022-10-18T08:37:38.858Z,90.60
2022-10-18T08:40:06.880Z,90.80
2022-10-18T08:43:01.691Z,91.10
2022-10-18T08:45:55.407Z,91.10
2022-10-18T08:48:43.279Z,91.50
2022-10-18T08:51:25.139Z,91.80
2022-10-18T08:54:33.023Z,92.10
2022-10-18T08:57:02.161Z,92.30
2022-10-18T08:59:41.734Z,92.40
2022-10-18T09:02:20.941Z,92.50
2022-10-18T09:05:25.243Z,92.40
2022-10-18T09:08:02.848Z,92.50
2022-10-18T09:11:11.895Z,92.80
2022-10-18T09:14:21.547Z,92.80
2022-10-18T09:17:15.065Z,92.60
2022-10-18T09:20:02.944Z,93.10
2022-10-18T09:23:27.124Z,93.60
2022-10-18T09:26:32.447Z,94.00
2022-10-18T09:29:17.326Z,95.30
2022-10-18T09:35:20.372Z,95.70
2022-10-18T09:38:16.872Z,95.70
2022-10-18T09:41:01.926Z,95.70
2022-10-18T09:43:55.689Z,95.70
2022-10-18T09:46:25.383Z,95.70
2022-10-18T09:49:00.661Z,95.70
2022-10-18T09:51:34.024Z,95.70
2022-10-18T09:54:19.437Z,95.70
2022-10-18T09:57:09.770Z,95.70
2022-10-18T09:59:47.304Z,95.70
2022-10-18T10:02:25.775Z,95.70
2022-10-18T10:04:54.282Z,95.70
2022-10-18T10:07:29.767Z,95.70
2022-10-18T10:10:04.886Z,95.70
2022-10-18T10:12:37.000Z,95.70
2022-10-18T10:15:28.172Z,95.70
2022-10-18T10:18:18.035Z,95.70
2022-10-18T10:20:56.231Z,95.70
2022-10-18T10:23:44.776Z,95.70
2022-10-18T10:26:22.829Z,95.70
2022-10-18T10:28:50.077Z,95.70
2022-10-18T10:31:33.202Z,95.70
2022-10-18T10:34:12.812Z,95.70
2022-10-18T10:36:50.503Z,95.70
2022-10-18T10:39:19.314Z,95.70
2022-10-18T10:41:50.337Z,95.70
2022-10-18T10:44:25.143Z,95.70
2022-10-18T10:46:52.598Z,95.70
2022-10-18T10:49:41.158Z,95.70
2022-10-18T10:52:26.781Z,95.70
2022-10-18T10:55:05.841Z,95.70
2022-10-18T10:57:46.391Z,95.70
2022-10-18T11:00:40.548Z,95.70
2022-10-18T11:03:29.509Z,95.70
2022-10-18T11:05:57.995Z,95.70
2022-10-18T11:08:40.414Z,95.70
2022-10-18T11:11:28.221Z,95.70
2022-10-18T11:14:07.387Z,95.40
2022-10-18T11:17:10.076Z,95.60
2022-10-18T11:19:45.047Z,95.40
2022-10-18T11:22:23.979Z,94.90
2022-10-18T11:24:50.900Z,94.30
2022-10-18T11:27:43.236Z,94.30
2022-10-18T11:30:20.306Z,93.90
2022-10-18T11:33:25.555Z,93.40
2022-10-18T11:36:21.238Z,93.50
2022-10-18T11:39:02.734Z,93.10
2022-10-18T11:41:48.569Z,92.90
2022-10-18T12:00:49.454Z,92.90
2022-10-18T12:06:55.850Z,92.80
2022-10-18T12:17:41.092Z,94.30
2022-10-18T12:30:33.278Z,94.90
2022-10-18T12:33:27.302Z,95.00
2022-10-18T12:36:23.440Z,95.20
2022-10-18T12:39:33.425Z,94.70
2022-10-18T12:42:35.540Z,94.40
2022-10-18T12:45:34.032Z,95.10
2022-10-18T12:48:12.105Z,95.50
2022-10-18T12:51:39.995Z,94.50
2022-10-18T12:54:28.383Z,94.30
2022-10-18T12:57:21.983Z,93.90
2022-10-18T12:59:48.962Z,93.20
2022-10-18T13:02:27.495Z,92.90
2022-10-18T13:07:42.466Z,92.30
2022-10-18T13:10:15.071Z,92.50
2022-10-18T13:12:53.968Z,92.20
2022-10-18T13:15:26.370Z,91.70
2022-10-18T13:17:59.464Z,91.40
2022-10-18T13:20:47.310Z,91.40
2022-10-18T13:23:41.468Z,91.70
2022-10-18T13:26:14.386Z,91.80
2022-10-18T13:28:41.209Z,91.80
2022-10-18T13:31:15.336Z,91.40
2022-10-18T13:33:42.484Z,91.60
2022-10-18T13:36:22.792Z,92.30
2022-10-18T13:38:50.417Z,92.30
2022-10-18T13:41:21.257Z,92.00
2022-10-18T13:43:54.174Z,92.30
2022-10-18T13:46:22.708Z,91.80
2022-10-18T13:49:23.284Z,92.00
2022-10-18T13:51:54.288Z,91.10
2022-10-18T13:54:40.854Z,89.60
2022-10-18T13:57:30.711Z,89.30
2022-10-18T14:00:18.807Z,89.20
2022-10-18T14:03:05.097Z,89.60
2022-10-18T14:05:47.759Z,89.80
2022-10-18T14:08:38.540Z,90.40
2022-10-18T14:11:15.216Z,90.20
2022-10-18T14:14:16.924Z,91.00
2022-10-18T14:16:46.431Z,91.20
2022-10-18T14:19:25.453Z,91.50
2022-10-18T14:22:38.740Z,92.10
2022-10-18T14:25:27.251Z,92.40
2022-10-18T14:28:11.545Z,92.20
2022-10-18T14:31:13.292Z,92.30
2022-10-18T14:33:46.796Z,92.00
2022-10-18T14:36:24.335Z,91.40
2022-10-18T14:38:56.687Z,91.80
2022-10-18T14:41:28.740Z,91.80
2022-10-18T14:44:14.068Z,91.10
2022-10-18T14:47:02.691Z,91.10
2022-10-18T14:49:29.996Z,91.20
2022-10-18T14:51:58.953Z,91.30
2022-10-18T14:54:31.875Z,91.50
2022-10-18T14:57:00.894Z,91.40
2022-10-18T14:59:42.658Z,91.60
2022-10-18T15:02:24.414Z,91.80
2022-10-18T15:05:09.241Z,91.80
2022-10-18T15:07:36.433Z,91.80
2022-10-18T15:10:05.359Z,92.30
2022-10-18T15:12:36.886Z,92.30
2022-10-18T15:15:19.894Z,92.20
2022-10-18T15:17:50.046Z,92.20
2022-10-18T15:20:21.980Z,92.10
2022-10-18T15:22:49.060Z,92.20
2022-10-18T15:25:18.709Z,92.40
2022-10-18T15:27:51.402Z,92.40
2022-10-18T15:30:21.362Z,92.40
2022-10-18T15:36:10.547Z,92.60
2022-10-18T15:38:38.721Z,92.60
2022-10-18T15:41:43.327Z,92.90
2022-10-18T15:44:28.429Z,93.10
2022-10-18T15:47:09.411Z,93.30
2022-10-18T15:49:39.117Z,93.50
2022-10-18T15:52:08.857Z,93.60
2022-10-18T15:54:35.700Z,93.90
2022-10-18T15:57:11.662Z,93.80
2022-10-18T16:00:04.482Z,93.90
2022-10-18T16:02:31.433Z,93.80
2022-10-18T16:04:59.766Z,93.40
2022-10-18T16:07:26.724Z,93.00
2022-10-18T16:09:53.472Z,92.50
2022-10-18T16:12:20.260Z,92.70
2022-10-18T16:14:47.044Z,92.50
2022-10-18T16:17:16.949Z,93.00
2022-10-18T16:19:47.605Z,93.50
2022-10-18T16:24:41.426Z,93.90
2022-10-18T16:27:17.714Z,94.00
2022-10-18T16:29:45.258Z,94.20
2022-10-18T16:32:12.027Z,94.40
2022-10-18T16:34:38.824Z,94.50
2022-10-18T16:37:05.652Z,94.50
2022-10-18T16:39:34.933Z,94.70
2022-10-18T16:42:01.711Z,94.80
2022-10-18T16:44:28.509Z,94.80
2022-10-18T16:47:11.371Z,94.80
2022-10-18T16:57:35.183Z,95.20
2022-10-18T17:00:14.909Z,95.50
2022-10-18T17:02:42.705Z,95.60
2022-10-18T17:05:09.546Z,95.70
2022-10-18T17:07:36.802Z,95.70
2022-10-18T17:10:04.073Z,95.70
2022-10-18T17:12:31.926Z,95.70
2022-10-18T17:14:59.017Z,95.70
2022-10-18T17:17:29.522Z,95.70
2022-10-18T17:19:56.542Z,95.70
2022-10-18T17:22:23.919Z,95.70
2022-10-18T17:24:50.842Z,95.70
2022-10-18T17:27:17.729Z,95.70
2022-10-18T17:29:44.794Z,95.70
2022-10-18T17:32:13.538Z,95.70
2022-10-18T17:34:42.675Z,95.70
2022-10-18T17:37:14.472Z,95.70
2022-10-18T17:39:41.640Z,95.70
2022-10-18T17:42:08.451Z,95.70
2022-10-18T17:44:37.871Z,95.70
2022-10-18T17:47:05.101Z,95.70
2022-10-18T17:49:31.808Z,95.70
2022-10-18T17:52:02.088Z,95.70
2022-10-18T17:54:31.246Z,95.70
2022-10-18T17:56:58.416Z,95.70
2022-10-18T17:59:25.202Z,95.70
2022-10-18T18:01:52.461Z,95.70
2022-10-18T18:04:19.446Z,95.70
2022-10-18T18:06:49.832Z,95.70
2022-10-18T18:09:16.723Z,95.70
2022-10-18T18:11:44.900Z,95.70
2022-10-18T18:14:21.751Z,95.70
2022-10-18T18:20:18.379Z,95.70
2022-10-18T18:22:47.838Z,95.70
2022-10-18T18:25:14.593Z,95.70
2022-10-18T18:27:43.023Z,95.70
2022-10-18T18:30:10.141Z,95.70
2022-10-18T18:32:36.903Z,95.70
2022-10-18T18:35:03.849Z,95.70
2022-10-18T18:37:30.645Z,95.70
2022-10-18T18:39:57.593Z,95.70
2022-10-18T18:42:24.553Z,95.70
2022-10-18T18:44:51.320Z,95.70
2022-10-18T18:47:21.561Z,95.70
2022-10-18T18:49:49.378Z,95.70
2022-10-18T18:52:16.385Z,95.70
2022-10-18T18:54:43.165Z,95.70
2022-10-18T18:57:10.077Z,95.70
2022-10-18T18:59:37.011Z,95.70
2022-10-18T19:02:03.772Z,95.70
2022-10-18T19:04:30.563Z,95.70
2022-10-18T19:06:57.374Z,95.70
2022-10-18T19:09:26.627Z,95.70
2022-10-18T19:11:58.451Z,95.70
2022-10-18T19:14:30.839Z,95.70
2022-10-18T19:17:02.367Z,95.70
2022-10-18T19:19:41.502Z,95.70
2022-10-18T19:22:12.934Z,95.70
2022-10-18T19:24:39.802Z,95.70
2022-10-18T19:27:12.398Z,95.70
2022-10-18T19:29:51.355Z,95.70
2022-10-18T19:32:19.094Z,95.70
2022-10-18T19:34:48.607Z,95.70
2022-10-18T19:37:16.119Z,95.70
2022-10-18T19:39:42.931Z,95.70
2022-10-18T19:42:17.425Z,95.70
2022-10-18T19:45:06.353Z,95.70
2022-10-18T19:47:33.133Z,95.70
2022-10-18T19:50:02.452Z,95.70
2022-10-18T19:52:29.248Z,95.70
2022-10-18T19:54:58.962Z,95.70
2022-10-18T19:57:25.719Z,95.70
2022-10-18T19:59:56.821Z,95.70
2022-10-18T20:02:26.580Z,95.70
2022-10-18T20:04:53.457Z,95.70
2022-10-18T20:07:21.820Z,95.70
2022-10-18T20:09:48.612Z,95.70
2022-10-18T20:12:17.867Z,95.70
2022-10-18T20:14:44.757Z,95.70
2022-10-18T20:17:19.137Z,95.70
2022-10-18T20:19:56.923Z,95.70
2022-10-18T20:22:29.557Z,95.70
2022-10-18T20:25:00.813Z,95.70
2022-10-18T20:27:32.339Z,95.70
2022-10-18T20:30:19.868Z,95.70
2022-10-18T20:32:52.879Z,95.70
2022-10-18T20:35:52.926Z,95.70
2022-10-18T20:38:19.858Z,95.70
2022-10-18T20:40:51.000Z,95.70
2022-10-18T20:43:21.264Z,95.70
2022-10-18T20:45:56.054Z,95.70
2022-10-18T20:48:22.921Z,95.70
2022-10-18T20:50:49.681Z,95.70
2022-10-18T20:53:16.668Z,95.70
2022-10-18T20:55:43.673Z,95.70
2022-10-18T20:58:11.494Z,95.70
2022-10-18T21:00:38.371Z,95.70
2022-10-18T21:03:05.203Z,95.70
2022-10-18T21:05:32.528Z,95.70
2022-10-18T21:07:59.474Z,95.70
2022-10-18T21:10:26.634Z,95.70
2022-10-18T21:13:00.027Z,95.70
2022-10-18T21:15:26.893Z,95.70
2022-10-18T21:17:53.945Z,95.70
2022-10-18T21:20:20.739Z,95.70
2022-10-18T21:22:48.135Z,95.70
2022-10-18T21:25:14.910Z,95.70
2022-10-18T21:27:41.707Z,95.70
2022-10-18T21:30:09.032Z,95.70
2022-10-18T21:32:36.102Z,95.70
2022-10-18T21:35:03.146Z,95.70
2022-10-18T21:37:30.216Z,95.70
2022-10-18T21:39:57.070Z,95.70
2022-10-18T21:42:23.944Z,95.70
2022-10-18T21:44:50.687Z,95.70
2022-10-18T21:47:17.463Z,95.70
2022-10-18T21:49:44.246Z,95.70
2022-10-18T21:52:11.003Z,95.70
2022-10-18T21:54:37.775Z,95.70
2022-10-18T21:57:04.553Z,95.70
2022-10-18T21:59:31.381Z,95.70
2022-10-18T22:01:58.308Z,95.70
2022-10-18T22:04:25.442Z,95.70
2022-10-18T22:06:52.305Z,95.70
2022-10-18T22:09:19.835Z,95.70
2022-10-18T22:11:50.425Z,95.70
2022-10-18T22:14:20.983Z,95.70
2022-10-18T22:16:48.269Z,95.70
2022-10-18T22:19:15.230Z,95.70
2022-10-18T22:22:04.579Z,95.70
2022-10-18T22:24:53.196Z,95.70
2022-10-18T22:27:32.837Z,95.70
2022-10-18T22:30:33.882Z,95.70
2022-10-18T22:33:41.149Z,95.70
2022-10-18T22:36:32.109Z,95.70
2022-10-18T22:39:12.222Z,95.70
2022-10-18T22:42:06.767Z,95.70
2022-10-18T22:44:36.577Z,95.70
2022-10-18T22:47:03.447Z,95.70
2022-10-18T22:49:30.229Z,95.70
2022-10-18T22:51:57.086Z,95.70
2022-10-18T22:54:23.873Z,95.70
2022-10-18T22:56:50.691Z,95.70
2022-10-18T22:59:17.445Z,95.70
2022-10-18T23:01:44.240Z,95.70
2022-10-18T23:04:11.038Z,95.70
2022-10-18T23:06:39.283Z,95.70
2022-10-18T23:09:08.458Z,95.70
2022-10-18T23:11:36.183Z,95.70
2022-10-18T23:14:04.822Z,95.70
2022-10-18T23:16:31.875Z,95.70
2022-10-18T23:18:59.119Z,95.70
2022-10-18T23:21:27.973Z,95.70
2022-10-18T23:23:55.291Z,95.70
2022-10-18T23:26:24.627Z,95.70
2022-10-18T23:28:52.331Z,95.70
2022-10-18T23:31:20.473Z,95.70
2022-10-18T23:33:49.064Z,95.70
2022-10-18T23:36:16.133Z,95.70
2022-10-18T23:38:43.481Z,95.70
2022-10-18T23:41:11.759Z,95.70
2022-10-18T23:43:40.018Z,95.70
2022-10-18T23:46:06.863Z,95.70
2022-10-18T23:48:34.281Z,95.70
2022-10-18T23:51:01.783Z,95.70
2022-10-18T23:53:28.778Z,95.70
2022-10-18T23:55:57.568Z,95.70
2022-10-18T23:58:24.741Z,95.70
